sensor_id;sensor_type;location;lat;lon;timestamp;P1;durP1;ratioP1;P2;durP2;ratioP2
50495;SDS011;38806;51.554;5.704;2023-08-31T00:00:26;10.35;;;4.93;;
50495;SDS011;38806;51.554;5.704;2023-08-31T00:02:27;9.13;;;4.65;;
50495;SDS011;38806;51.554;5.704;2023-08-31T00:04:27;9.52;;;4.18;;
50495;SDS011;38806;51.554;5.704;2023-08-31T00:06:27;9.45;;;4.40;;
50495;SDS011;38806;51.554;5.704;2023-08-31T00:08:28;8.27;;;5.03;;
50495;SDS011;38806;51.554;5.704;2023-08-31T00:10:28;11.73;;;5.18;;
50495;SDS011;38806;51.554;5.704;2023-08-31T00:12:30;9.23;;;5.63;;
50495;SDS011;38806;51.554;5.704;2023-08-31T00:14:30;11.02;;;6.13;;
50495;SDS011;38806;51.554;5.704;2023-08-31T00:16:30;8.15;;;4.88;;
50495;SDS011;38806;51.554;5.704;2023-08-31T00:18:31;10.40;;;6.18;;
50495;SDS011;38806;51.554;5.704;2023-08-31T00:20:31;12.73;;;6.43;;
50495;SDS011;38806;51.554;5.704;2023-08-31T00:22:33;15.35;;;7.30;;
50495;SDS011;38806;51.554;5.704;2023-08-31T00:24:33;13.45;;;7.93;;
50495;SDS011;38806;51.554;5.704;2023-08-31T00:26:36;11.95;;;6.47;;
50495;SDS011;38806;51.554;5.704;2023-08-31T00:28:41;12.38;;;6.68;;
50495;SDS011;38806;51.554;5.704;2023-08-31T00:30:42;12.50;;;8.57;;
50495;SDS011;38806;51.554;5.704;2023-08-31T00:32:44;13.23;;;6.97;;
50495;SDS011;38806;51.554;5.704;2023-08-31T00:34:47;14.30;;;8.90;;
50495;SDS011;38806;51.554;5.704;2023-08-31T00:36:47;14.32;;;8.50;;
50495;SDS011;38806;51.554;5.704;2023-08-31T00:38:48;14.98;;;9.23;;
50495;SDS011;38806;51.554;5.704;2023-08-31T00:40:49;18.70;;;9.73;;
50495;SDS011;38806;51.554;5.704;2023-08-31T00:42:50;13.55;;;8.40;;
50495;SDS011;38806;51.554;5.704;2023-08-31T00:44:51;15.82;;;9.75;;
50495;SDS011;38806;51.554;5.704;2023-08-31T00:46:52;15.27;;;9.82;;
50495;SDS011;38806;51.554;5.704;2023-08-31T00:48:52;18.05;;;9.15;;
50495;SDS011;38806;51.554;5.704;2023-08-31T00:50:52;15.00;;;8.02;;
50495;SDS011;38806;51.554;5.704;2023-08-31T00:52:52;17.85;;;9.80;;
50495;SDS011;38806;51.554;5.704;2023-08-31T00:54:53;17.58;;;10.77;;
50495;SDS011;38806;51.554;5.704;2023-08-31T00:56:54;21.92;;;10.57;;
50495;SDS011;38806;51.554;5.704;2023-08-31T00:58:54;16.25;;;8.73;;
50495;SDS011;38806;51.554;5.704;2023-08-31T01:03:03;18.35;;;10.50;;
50495;SDS011;38806;51.554;5.704;2023-08-31T01:07:17;19.05;;;9.95;;
50495;SDS011;38806;51.554;5.704;2023-08-31T01:13:58;14.95;;;9.80;;
50495;SDS011;38806;51.554;5.704;2023-08-31T01:16:03;17.52;;;10.57;;
50495;SDS011;38806;51.554;5.704;2023-08-31T01:18:04;14.57;;;8.93;;
50495;SDS011;38806;51.554;5.704;2023-08-31T01:20:06;15.65;;;9.02;;
50495;SDS011;38806;51.554;5.704;2023-08-31T01:22:07;12.25;;;7.30;;
50495;SDS011;38806;51.554;5.704;2023-08-31T01:24:09;12.77;;;8.00;;
50495;SDS011;38806;51.554;5.704;2023-08-31T01:26:10;16.92;;;9.68;;
50495;SDS011;38806;51.554;5.704;2023-08-31T01:28:10;18.13;;;11.68;;
50495;SDS011;38806;51.554;5.704;2023-08-31T01:30:11;15.73;;;9.52;;
50495;SDS011;38806;51.554;5.704;2023-08-31T01:32:11;17.40;;;9.95;;
50495;SDS011;38806;51.554;5.704;2023-08-31T01:34:12;16.50;;;9.00;;
50495;SDS011;38806;51.554;5.704;2023-08-31T01:36:31;15.27;;;10.13;;
50495;SDS011;38806;51.554;5.704;2023-08-31T01:38:33;19.23;;;10.20;;
50495;SDS011;38806;51.554;5.704;2023-08-31T01:42:35;15.02;;;9.88;;
50495;SDS011;38806;51.554;5.704;2023-08-31T01:44:36;21.88;;;11.70;;
50495;SDS011;38806;51.554;5.704;2023-08-31T01:46:37;14.77;;;9.40;;
50495;SDS011;38806;51.554;5.704;2023-08-31T01:48:40;14.68;;;10.43;;
50495;SDS011;38806;51.554;5.704;2023-08-31T01:50:40;19.77;;;12.38;;
50495;SDS011;38806;51.554;5.704;2023-08-31T01:52:41;21.30;;;12.05;;
50495;SDS011;38806;51.554;5.704;2023-08-31T01:54:41;19.92;;;12.82;;
50495;SDS011;38806;51.554;5.704;2023-08-31T01:56:41;21.98;;;11.90;;
50495;SDS011;38806;51.554;5.704;2023-08-31T01:58:41;15.32;;;9.38;;
50495;SDS011;38806;51.554;5.704;2023-08-31T02:00:42;13.75;;;9.77;;
50495;SDS011;38806;51.554;5.704;2023-08-31T02:02:42;20.55;;;11.60;;
50495;SDS011;38806;51.554;5.704;2023-08-31T02:04:43;16.42;;;12.00;;
50495;SDS011;38806;51.554;5.704;2023-08-31T02:06:43;16.13;;;10.30;;
50495;SDS011;38806;51.554;5.704;2023-08-31T02:08:43;18.13;;;12.32;;
50495;SDS011;38806;51.554;5.704;2023-08-31T02:10:47;19.00;;;11.75;;
50495;SDS011;38806;51.554;5.704;2023-08-31T02:12:48;20.85;;;11.18;;
50495;SDS011;38806;51.554;5.704;2023-08-31T02:14:48;20.52;;;13.25;;
50495;SDS011;38806;51.554;5.704;2023-08-31T02:16:48;20.13;;;11.95;;
50495;SDS011;38806;51.554;5.704;2023-08-31T02:18:48;21.83;;;13.15;;
50495;SDS011;38806;51.554;5.704;2023-08-31T02:20:51;18.83;;;13.20;;
50495;SDS011;38806;51.554;5.704;2023-08-31T02:22:52;24.60;;;13.45;;
50495;SDS011;38806;51.554;5.704;2023-08-31T02:24:52;24.38;;;14.13;;
50495;SDS011;38806;51.554;5.704;2023-08-31T02:26:52;23.13;;;14.25;;
50495;SDS011;38806;51.554;5.704;2023-08-31T02:28:52;20.60;;;11.82;;
50495;SDS011;38806;51.554;5.704;2023-08-31T02:31:02;22.67;;;13.45;;
50495;SDS011;38806;51.554;5.704;2023-08-31T02:33:02;20.35;;;13.50;;
50495;SDS011;38806;51.554;5.704;2023-08-31T02:35:02;23.55;;;13.52;;
50495;SDS011;38806;51.554;5.704;2023-08-31T02:37:03;19.77;;;12.95;;
50495;SDS011;38806;51.554;5.704;2023-08-31T02:39:03;24.02;;;15.07;;
50495;SDS011;38806;51.554;5.704;2023-08-31T02:41:03;21.13;;;13.23;;
50495;SDS011;38806;51.554;5.704;2023-08-31T02:43:04;22.63;;;15.95;;
50495;SDS011;38806;51.554;5.704;2023-08-31T02:45:04;20.48;;;13.15;;
50495;SDS011;38806;51.554;5.704;2023-08-31T02:47:04;22.80;;;14.65;;
50495;SDS011;38806;51.554;5.704;2023-08-31T02:49:04;23.33;;;14.10;;
50495;SDS011;38806;51.554;5.704;2023-08-31T02:51:05;22.63;;;14.73;;
50495;SDS011;38806;51.554;5.704;2023-08-31T02:53:05;25.00;;;17.25;;
50495;SDS011;38806;51.554;5.704;2023-08-31T02:55:05;23.95;;;14.45;;
50495;SDS011;38806;51.554;5.704;2023-08-31T02:57:06;23.77;;;15.02;;
50495;SDS011;38806;51.554;5.704;2023-08-31T02:59:07;21.17;;;13.18;;
50495;SDS011;38806;51.554;5.704;2023-08-31T03:01:08;22.15;;;14.45;;
50495;SDS011;38806;51.554;5.704;2023-08-31T03:03:11;23.98;;;14.75;;
50495;SDS011;38806;51.554;5.704;2023-08-31T03:05:11;23.02;;;14.85;;
50495;SDS011;38806;51.554;5.704;2023-08-31T03:07:11;24.70;;;13.90;;
50495;SDS011;38806;51.554;5.704;2023-08-31T03:09:13;23.75;;;14.38;;
50495;SDS011;38806;51.554;5.704;2023-08-31T03:11:13;25.90;;;13.88;;
50495;SDS011;38806;51.554;5.704;2023-08-31T03:13:14;24.85;;;16.48;;
50495;SDS011;38806;51.554;5.704;2023-08-31T03:15:14;23.65;;;14.98;;
50495;SDS011;38806;51.554;5.704;2023-08-31T03:17:15;20.17;;;12.88;;
50495;SDS011;38806;51.554;5.704;2023-08-31T03:19:15;21.35;;;13.68;;
50495;SDS011;38806;51.554;5.704;2023-08-31T03:21:15;23.27;;;13.88;;
50495;SDS011;38806;51.554;5.704;2023-08-31T03:23:15;23.65;;;14.20;;
50495;SDS011;38806;51.554;5.704;2023-08-31T03:25:16;19.92;;;13.70;;
50495;SDS011;38806;51.554;5.704;2023-08-31T03:27:16;26.95;;;18.02;;
50495;SDS011;38806;51.554;5.704;2023-08-31T03:29:16;26.00;;;15.40;;
50495;SDS011;38806;51.554;5.704;2023-08-31T03:31:16;25.70;;;16.27;;
50495;SDS011;38806;51.554;5.704;2023-08-31T03:33:16;28.80;;;15.80;;
50495;SDS011;38806;51.554;5.704;2023-08-31T03:35:17;23.38;;;14.43;;
50495;SDS011;38806;51.554;5.704;2023-08-31T03:37:17;23.88;;;15.68;;
50495;SDS011;38806;51.554;5.704;2023-08-31T03:39:17;27.30;;;15.32;;
50495;SDS011;38806;51.554;5.704;2023-08-31T03:41:18;28.38;;;15.55;;
50495;SDS011;38806;51.554;5.704;2023-08-31T03:43:18;25.40;;;18.00;;
50495;SDS011;38806;51.554;5.704;2023-08-31T03:45:18;26.58;;;15.63;;
50495;SDS011;38806;51.554;5.704;2023-08-31T03:47:18;25.25;;;17.50;;
50495;SDS011;38806;51.554;5.704;2023-08-31T03:49:18;30.67;;;18.08;;
50495;SDS011;38806;51.554;5.704;2023-08-31T03:51:18;26.10;;;16.02;;
50495;SDS011;38806;51.554;5.704;2023-08-31T03:53:19;22.42;;;14.38;;
50495;SDS011;38806;51.554;5.704;2023-08-31T03:55:19;26.38;;;16.45;;
50495;SDS011;38806;51.554;5.704;2023-08-31T03:57:20;27.48;;;17.35;;
50495;SDS011;38806;51.554;5.704;2023-08-31T03:59:20;25.25;;;15.68;;
50495;SDS011;38806;51.554;5.704;2023-08-31T04:01:20;25.67;;;14.88;;
50495;SDS011;38806;51.554;5.704;2023-08-31T04:03:20;26.83;;;14.63;;
50495;SDS011;38806;51.554;5.704;2023-08-31T04:05:21;27.08;;;16.77;;
50495;SDS011;38806;51.554;5.704;2023-08-31T04:07:21;27.02;;;15.88;;
50495;SDS011;38806;51.554;5.704;2023-08-31T04:09:21;30.27;;;15.27;;
50495;SDS011;38806;51.554;5.704;2023-08-31T04:11:22;27.52;;;16.52;;
50495;SDS011;38806;51.554;5.704;2023-08-31T04:13:22;26.98;;;15.85;;
50495;SDS011;38806;51.554;5.704;2023-08-31T04:15:22;24.98;;;16.80;;
50495;SDS011;38806;51.554;5.704;2023-08-31T04:17:22;22.63;;;14.38;;
50495;SDS011;38806;51.554;5.704;2023-08-31T04:19:23;24.70;;;15.57;;
50495;SDS011;38806;51.554;5.704;2023-08-31T04:21:23;26.63;;;14.85;;
50495;SDS011;38806;51.554;5.704;2023-08-31T04:23:23;27.60;;;16.08;;
50495;SDS011;38806;51.554;5.704;2023-08-31T04:25:23;28.88;;;16.38;;
50495;SDS011;38806;51.554;5.704;2023-08-31T04:27:24;29.50;;;15.02;;
50495;SDS011;38806;51.554;5.704;2023-08-31T04:29:24;30.80;;;17.55;;
50495;SDS011;38806;51.554;5.704;2023-08-31T04:31:24;23.90;;;16.17;;
50495;SDS011;38806;51.554;5.704;2023-08-31T04:33:25;25.77;;;16.02;;
50495;SDS011;38806;51.554;5.704;2023-08-31T04:35:26;24.05;;;14.50;;
50495;SDS011;38806;51.554;5.704;2023-08-31T04:37:27;22.25;;;16.45;;
50495;SDS011;38806;51.554;5.704;2023-08-31T04:39:27;24.13;;;15.20;;
50495;SDS011;38806;51.554;5.704;2023-08-31T04:41:27;29.63;;;17.75;;
50495;SDS011;38806;51.554;5.704;2023-08-31T04:43:27;29.70;;;17.92;;
50495;SDS011;38806;51.554;5.704;2023-08-31T04:45:28;25.00;;;15.27;;
50495;SDS011;38806;51.554;5.704;2023-08-31T04:47:28;28.30;;;17.50;;
50495;SDS011;38806;51.554;5.704;2023-08-31T04:49:28;27.77;;;17.67;;
50495;SDS011;38806;51.554;5.704;2023-08-31T04:51:32;30.65;;;15.85;;
50495;SDS011;38806;51.554;5.704;2023-08-31T04:53:32;30.92;;;16.23;;
50495;SDS011;38806;51.554;5.704;2023-08-31T04:55:32;30.48;;;18.95;;
50495;SDS011;38806;51.554;5.704;2023-08-31T04:57:33;30.50;;;16.70;;
50495;SDS011;38806;51.554;5.704;2023-08-31T04:59:33;28.45;;;16.05;;
50495;SDS011;38806;51.554;5.704;2023-08-31T05:01:33;26.40;;;16.92;;
50495;SDS011;38806;51.554;5.704;2023-08-31T05:03:33;25.70;;;15.70;;
50495;SDS011;38806;51.554;5.704;2023-08-31T05:05:34;27.50;;;14.45;;
50495;SDS011;38806;51.554;5.704;2023-08-31T05:07:34;26.77;;;16.15;;
50495;SDS011;38806;51.554;5.704;2023-08-31T05:09:35;24.48;;;15.63;;
50495;SDS011;38806;51.554;5.704;2023-08-31T05:11:35;26.95;;;15.27;;
50495;SDS011;38806;51.554;5.704;2023-08-31T05:13:35;22.92;;;15.40;;
50495;SDS011;38806;51.554;5.704;2023-08-31T05:15:35;25.25;;;14.68;;
50495;SDS011;38806;51.554;5.704;2023-08-31T05:17:35;22.50;;;14.77;;
50495;SDS011;38806;51.554;5.704;2023-08-31T05:19:36;26.65;;;15.93;;
50495;SDS011;38806;51.554;5.704;2023-08-31T05:21:36;23.48;;;14.18;;
50495;SDS011;38806;51.554;5.704;2023-08-31T05:23:36;21.60;;;13.60;;
50495;SDS011;38806;51.554;5.704;2023-08-31T05:25:41;24.30;;;14.10;;
50495;SDS011;38806;51.554;5.704;2023-08-31T05:27:41;24.13;;;15.25;;
50495;SDS011;38806;51.554;5.704;2023-08-31T05:29:42;22.58;;;14.32;;
50495;SDS011;38806;51.554;5.704;2023-08-31T05:31:42;21.27;;;13.45;;
50495;SDS011;38806;51.554;5.704;2023-08-31T05:33:42;23.63;;;14.75;;
50495;SDS011;38806;51.554;5.704;2023-08-31T05:35:42;25.27;;;15.38;;
50495;SDS011;38806;51.554;5.704;2023-08-31T05:37:42;24.88;;;15.25;;
50495;SDS011;38806;51.554;5.704;2023-08-31T05:39:47;23.35;;;14.77;;
50495;SDS011;38806;51.554;5.704;2023-08-31T05:41:47;25.08;;;13.23;;
50495;SDS011;38806;51.554;5.704;2023-08-31T05:43:47;21.88;;;13.38;;
50495;SDS011;38806;51.554;5.704;2023-08-31T05:45:47;22.95;;;13.25;;
50495;SDS011;38806;51.554;5.704;2023-08-31T05:47:47;18.52;;;11.65;;
50495;SDS011;38806;51.554;5.704;2023-08-31T05:49:48;17.45;;;11.00;;
50495;SDS011;38806;51.554;5.704;2023-08-31T05:51:48;19.35;;;12.07;;
50495;SDS011;38806;51.554;5.704;2023-08-31T05:53:49;19.52;;;11.30;;
50495;SDS011;38806;51.554;5.704;2023-08-31T05:55:49;15.82;;;10.40;;
50495;SDS011;38806;51.554;5.704;2023-08-31T05:57:50;19.65;;;11.85;;
50495;SDS011;38806;51.554;5.704;2023-08-31T05:59:50;17.05;;;10.48;;
50495;SDS011;38806;51.554;5.704;2023-08-31T06:01:50;18.95;;;11.02;;
50495;SDS011;38806;51.554;5.704;2023-08-31T06:03:51;18.52;;;12.52;;
50495;SDS011;38806;51.554;5.704;2023-08-31T06:05:51;17.55;;;10.13;;
50495;SDS011;38806;51.554;5.704;2023-08-31T06:07:51;16.13;;;9.65;;
50495;SDS011;38806;51.554;5.704;2023-08-31T06:09:52;17.75;;;9.70;;
50495;SDS011;38806;51.554;5.704;2023-08-31T06:11:52;19.15;;;9.80;;
50495;SDS011;38806;51.554;5.704;2023-08-31T06:13:53;19.27;;;10.55;;
50495;SDS011;38806;51.554;5.704;2023-08-31T06:15:53;18.60;;;9.32;;
50495;SDS011;38806;51.554;5.704;2023-08-31T06:17:55;16.48;;;10.88;;
50495;SDS011;38806;51.554;5.704;2023-08-31T06:19:55;13.57;;;8.05;;
50495;SDS011;38806;51.554;5.704;2023-08-31T06:21:56;13.75;;;8.90;;
50495;SDS011;38806;51.554;5.704;2023-08-31T06:23:56;15.85;;;9.48;;
50495;SDS011;38806;51.554;5.704;2023-08-31T06:25:56;14.88;;;9.02;;
50495;SDS011;38806;51.554;5.704;2023-08-31T06:27:56;17.58;;;8.95;;
50495;SDS011;38806;51.554;5.704;2023-08-31T06:29:57;16.80;;;9.07;;
50495;SDS011;38806;51.554;5.704;2023-08-31T06:31:57;16.90;;;9.98;;
50495;SDS011;38806;51.554;5.704;2023-08-31T06:33:57;14.63;;;8.48;;
50495;SDS011;38806;51.554;5.704;2023-08-31T06:35:57;15.65;;;8.63;;
50495;SDS011;38806;51.554;5.704;2023-08-31T06:37:57;18.58;;;10.93;;
50495;SDS011;38806;51.554;5.704;2023-08-31T06:39:58;18.40;;;9.95;;
50495;SDS011;38806;51.554;5.704;2023-08-31T06:41:58;13.18;;;9.05;;
50495;SDS011;38806;51.554;5.704;2023-08-31T06:43:58;13.88;;;10.02;;
50495;SDS011;38806;51.554;5.704;2023-08-31T06:45:58;13.40;;;9.15;;
50495;SDS011;38806;51.554;5.704;2023-08-31T06:47:59;18.23;;;9.85;;
50495;SDS011;38806;51.554;5.704;2023-08-31T06:50:00;14.23;;;9.20;;
50495;SDS011;38806;51.554;5.704;2023-08-31T06:52:00;12.68;;;8.63;;
50495;SDS011;38806;51.554;5.704;2023-08-31T06:54:01;22.77;;;9.77;;
50495;SDS011;38806;51.554;5.704;2023-08-31T06:56:06;16.55;;;8.93;;
50495;SDS011;38806;51.554;5.704;2023-08-31T06:58:06;12.88;;;7.60;;
50495;SDS011;38806;51.554;5.704;2023-08-31T07:00:06;15.57;;;8.45;;
50495;SDS011;38806;51.554;5.704;2023-08-31T07:02:08;17.92;;;8.70;;
50495;SDS011;38806;51.554;5.704;2023-08-31T07:04:08;16.90;;;10.18;;
50495;SDS011;38806;51.554;5.704;2023-08-31T07:06:08;16.40;;;8.52;;
50495;SDS011;38806;51.554;5.704;2023-08-31T07:08:09;13.70;;;7.68;;
50495;SDS011;38806;51.554;5.704;2023-08-31T07:10:09;13.85;;;7.90;;
50495;SDS011;38806;51.554;5.704;2023-08-31T07:12:10;16.17;;;9.13;;
50495;SDS011;38806;51.554;5.704;2023-08-31T07:14:10;15.98;;;8.15;;
50495;SDS011;38806;51.554;5.704;2023-08-31T07:16:10;13.23;;;8.98;;
50495;SDS011;38806;51.554;5.704;2023-08-31T07:18:10;15.18;;;8.02;;
50495;SDS011;38806;51.554;5.704;2023-08-31T07:20:11;11.30;;;7.63;;
50495;SDS011;38806;51.554;5.704;2023-08-31T07:22:11;13.23;;;8.52;;
50495;SDS011;38806;51.554;5.704;2023-08-31T07:24:12;13.98;;;8.95;;
50495;SDS011;38806;51.554;5.704;2023-08-31T07:26:12;14.20;;;7.63;;
50495;SDS011;38806;51.554;5.704;2023-08-31T07:28:12;14.40;;;7.53;;
50495;SDS011;38806;51.554;5.704;2023-08-31T07:30:12;19.58;;;8.55;;
50495;SDS011;38806;51.554;5.704;2023-08-31T07:32:13;15.00;;;9.50;;
50495;SDS011;38806;51.554;5.704;2023-08-31T07:34:13;13.90;;;8.15;;
50495;SDS011;38806;51.554;5.704;2023-08-31T07:36:13;12.75;;;8.30;;
50495;SDS011;38806;51.554;5.704;2023-08-31T07:38:15;11.55;;;7.47;;
50495;SDS011;38806;51.554;5.704;2023-08-31T07:40:15;11.63;;;6.30;;
50495;SDS011;38806;51.554;5.704;2023-08-31T07:42:16;19.67;;;6.95;;
50495;SDS011;38806;51.554;5.704;2023-08-31T07:44:16;14.38;;;7.05;;
50495;SDS011;38806;51.554;5.704;2023-08-31T07:46:17;12.65;;;7.70;;
50495;SDS011;38806;51.554;5.704;2023-08-31T07:48:17;13.95;;;7.20;;
50495;SDS011;38806;51.554;5.704;2023-08-31T07:50:17;16.83;;;7.97;;
50495;SDS011;38806;51.554;5.704;2023-08-31T07:52:18;17.88;;;8.40;;
50495;SDS011;38806;51.554;5.704;2023-08-31T07:54:20;15.40;;;7.40;;
50495;SDS011;38806;51.554;5.704;2023-08-31T07:56:21;9.90;;;6.30;;
50495;SDS011;38806;51.554;5.704;2023-08-31T07:58:22;14.52;;;7.82;;
50495;SDS011;38806;51.554;5.704;2023-08-31T08:00:22;15.23;;;7.32;;
50495;SDS011;38806;51.554;5.704;2023-08-31T08:02:23;14.55;;;7.15;;
50495;SDS011;38806;51.554;5.704;2023-08-31T08:04:23;17.27;;;7.05;;
50495;SDS011;38806;51.554;5.704;2023-08-31T08:06:24;12.25;;;7.13;;
50495;SDS011;38806;51.554;5.704;2023-08-31T08:08:25;14.57;;;7.32;;
50495;SDS011;38806;51.554;5.704;2023-08-31T08:10:26;13.30;;;7.45;;
50495;SDS011;38806;51.554;5.704;2023-08-31T08:12:26;11.20;;;5.70;;
50495;SDS011;38806;51.554;5.704;2023-08-31T08:14:26;11.50;;;6.25;;
50495;SDS011;38806;51.554;5.704;2023-08-31T08:16:26;11.75;;;6.47;;
50495;SDS011;38806;51.554;5.704;2023-08-31T08:18:27;12.20;;;6.00;;
50495;SDS011;38806;51.554;5.704;2023-08-31T08:20:27;11.17;;;6.80;;
50495;SDS011;38806;51.554;5.704;2023-08-31T08:22:28;13.35;;;6.35;;
50495;SDS011;38806;51.554;5.704;2023-08-31T08:24:28;11.75;;;6.15;;
50495;SDS011;38806;51.554;5.704;2023-08-31T08:26:29;10.63;;;5.90;;
50495;SDS011;38806;51.554;5.704;2023-08-31T08:28:29;11.95;;;6.63;;
50495;SDS011;38806;51.554;5.704;2023-08-31T08:30:29;14.40;;;6.22;;
50495;SDS011;38806;51.554;5.704;2023-08-31T08:32:29;12.80;;;6.50;;
50495;SDS011;38806;51.554;5.704;2023-08-31T08:34:29;11.55;;;5.68;;
50495;SDS011;38806;51.554;5.704;2023-08-31T08:36:30;13.75;;;5.63;;
50495;SDS011;38806;51.554;5.704;2023-08-31T08:38:30;9.30;;;4.53;;
50495;SDS011;38806;51.554;5.704;2023-08-31T08:40:30;10.70;;;5.27;;
50495;SDS011;38806;51.554;5.704;2023-08-31T08:42:32;8.75;;;4.85;;
50495;SDS011;38806;51.554;5.704;2023-08-31T08:44:33;7.60;;;4.57;;
50495;SDS011;38806;51.554;5.704;2023-08-31T08:46:34;10.35;;;4.93;;
50495;SDS011;38806;51.554;5.704;2023-08-31T08:48:34;7.32;;;4.75;;
50495;SDS011;38806;51.554;5.704;2023-08-31T08:50:36;9.30;;;4.65;;
50495;SDS011;38806;51.554;5.704;2023-08-31T08:52:37;8.98;;;5.00;;
50495;SDS011;38806;51.554;5.704;2023-08-31T08:54:37;9.40;;;4.95;;
50495;SDS011;38806;51.554;5.704;2023-08-31T08:56:38;10.20;;;4.72;;
50495;SDS011;38806;51.554;5.704;2023-08-31T08:58:38;10.10;;;4.13;;
50495;SDS011;38806;51.554;5.704;2023-08-31T09:00:38;17.80;;;4.53;;
50495;SDS011;38806;51.554;5.704;2023-08-31T09:02:40;10.30;;;4.13;;
50495;SDS011;38806;51.554;5.704;2023-08-31T09:04:41;13.25;;;5.20;;
50495;SDS011;38806;51.554;5.704;2023-08-31T09:06:41;9.37;;;4.57;;
50495;SDS011;38806;51.554;5.704;2023-08-31T09:08:41;11.80;;;4.50;;
50495;SDS011;38806;51.554;5.704;2023-08-31T09:10:44;8.67;;;4.83;;
50495;SDS011;38806;51.554;5.704;2023-08-31T09:12:45;9.43;;;4.93;;
50495;SDS011;38806;51.554;5.704;2023-08-31T09:14:56;8.85;;;4.28;;
50495;SDS011;38806;51.554;5.704;2023-08-31T09:16:56;7.88;;;3.90;;
50495;SDS011;38806;51.554;5.704;2023-08-31T09:18:56;9.07;;;4.90;;
50495;SDS011;38806;51.554;5.704;2023-08-31T09:20:57;9.23;;;4.20;;
50495;SDS011;38806;51.554;5.704;2023-08-31T09:22:57;10.15;;;3.97;;
50495;SDS011;38806;51.554;5.704;2023-08-31T09:24:58;10.65;;;4.65;;
50495;SDS011;38806;51.554;5.704;2023-08-31T09:26:58;8.53;;;4.10;;
50495;SDS011;38806;51.554;5.704;2023-08-31T09:28:58;9.93;;;4.30;;
50495;SDS011;38806;51.554;5.704;2023-08-31T09:31:03;6.87;;;4.10;;
50495;SDS011;38806;51.554;5.704;2023-08-31T09:33:04;9.40;;;3.78;;
50495;SDS011;38806;51.554;5.704;2023-08-31T09:35:08;9.52;;;4.82;;
50495;SDS011;38806;51.554;5.704;2023-08-31T09:37:08;6.90;;;4.10;;
50495;SDS011;38806;51.554;5.704;2023-08-31T09:39:09;7.60;;;4.80;;
50495;SDS011;38806;51.554;5.704;2023-08-31T09:41:10;5.00;;;4.10;;
50495;SDS011;38806;51.554;5.704;2023-08-31T09:43:10;6.63;;;3.57;;
50495;SDS011;38806;51.554;5.704;2023-08-31T09:45:10;6.60;;;4.28;;
50495;SDS011;38806;51.554;5.704;2023-08-31T09:47:11;6.72;;;4.18;;
50495;SDS011;38806;51.554;5.704;2023-08-31T09:49:13;4.75;;;2.83;;
50495;SDS011;38806;51.554;5.704;2023-08-31T09:51:14;7.35;;;3.53;;
50495;SDS011;38806;51.554;5.704;2023-08-31T09:53:16;7.63;;;4.78;;
50495;SDS011;38806;51.554;5.704;2023-08-31T09:55:17;9.88;;;4.03;;
50495;SDS011;38806;51.554;5.704;2023-08-31T09:57:18;9.00;;;3.85;;
50495;SDS011;38806;51.554;5.704;2023-08-31T09:59:20;8.45;;;3.35;;
50495;SDS011;38806;51.554;5.704;2023-08-31T10:01:20;5.63;;;2.95;;
50495;SDS011;38806;51.554;5.704;2023-08-31T10:03:20;10.35;;;2.80;;
50495;SDS011;38806;51.554;5.704;2023-08-31T10:05:21;8.07;;;3.47;;
50495;SDS011;38806;51.554;5.704;2023-08-31T10:07:21;4.47;;;2.53;;
50495;SDS011;38806;51.554;5.704;2023-08-31T10:09:21;8.20;;;3.55;;
50495;SDS011;38806;51.554;5.704;2023-08-31T10:11:22;6.90;;;2.90;;
50495;SDS011;38806;51.554;5.704;2023-08-31T10:13:23;5.10;;;2.80;;
50495;SDS011;38806;51.554;5.704;2023-08-31T10:15:24;7.05;;;3.30;;
50495;SDS011;38806;51.554;5.704;2023-08-31T10:17:26;8.38;;;3.92;;
50495;SDS011;38806;51.554;5.704;2023-08-31T10:19:27;6.85;;;3.28;;
50495;SDS011;38806;51.554;5.704;2023-08-31T10:21:28;5.03;;;2.87;;
50495;SDS011;38806;51.554;5.704;2023-08-31T10:23:28;8.77;;;2.78;;
50495;SDS011;38806;51.554;5.704;2023-08-31T10:27:47;4.47;;;2.40;;
50495;SDS011;38806;51.554;5.704;2023-08-31T10:29:50;5.78;;;2.53;;
50495;SDS011;38806;51.554;5.704;2023-08-31T10:31:50;5.80;;;2.63;;
50495;SDS011;38806;51.554;5.704;2023-08-31T10:36:00;4.40;;;2.47;;
50495;SDS011;38806;51.554;5.704;2023-08-31T10:38:33;5.43;;;2.63;;
50495;SDS011;38806;51.554;5.704;2023-08-31T10:40:27;5.65;;;2.28;;
50495;SDS011;38806;51.554;5.704;2023-08-31T10:42:27;6.30;;;2.78;;
50495;SDS011;38806;51.554;5.704;2023-08-31T10:44:30;6.83;;;2.30;;
50495;SDS011;38806;51.554;5.704;2023-08-31T10:46:34;7.97;;;2.17;;
50495;SDS011;38806;51.554;5.704;2023-08-31T10:48:48;7.70;;;2.42;;
50495;SDS011;38806;51.554;5.704;2023-08-31T10:50:49;4.55;;;2.22;;
50495;SDS011;38806;51.554;5.704;2023-08-31T10:52:49;6.72;;;2.33;;
50495;SDS011;38806;51.554;5.704;2023-08-31T10:54:54;5.25;;;2.03;;
50495;SDS011;38806;51.554;5.704;2023-08-31T10:58:58;4.13;;;2.03;;
50495;SDS011;38806;51.554;5.704;2023-08-31T11:00:59;4.28;;;2.30;;
50495;SDS011;38806;51.554;5.704;2023-08-31T11:02:59;8.17;;;2.67;;
50495;SDS011;38806;51.554;5.704;2023-08-31T11:05:11;6.15;;;2.55;;
50495;SDS011;38806;51.554;5.704;2023-08-31T11:07:15;8.50;;;2.40;;
50495;SDS011;38806;51.554;5.704;2023-08-31T11:09:21;4.90;;;2.28;;
50495;SDS011;38806;51.554;5.704;2023-08-31T11:11:22;4.25;;;2.00;;
50495;SDS011;38806;51.554;5.704;2023-08-31T11:13:23;3.25;;;1.80;;
50495;SDS011;38806;51.554;5.704;2023-08-31T11:15:23;4.13;;;2.10;;
50495;SDS011;38806;51.554;5.704;2023-08-31T11:17:24;4.50;;;3.22;;
50495;SDS011;38806;51.554;5.704;2023-08-31T11:19:25;6.97;;;2.40;;
50495;SDS011;38806;51.554;5.704;2023-08-31T11:21:25;6.53;;;2.85;;
50495;SDS011;38806;51.554;5.704;2023-08-31T11:23:26;7.67;;;3.00;;
50495;SDS011;38806;51.554;5.704;2023-08-31T11:25:26;8.90;;;3.07;;
50495;SDS011;38806;51.554;5.704;2023-08-31T11:27:26;5.70;;;2.05;;
50495;SDS011;38806;51.554;5.704;2023-08-31T11:29:26;6.63;;;2.27;;
50495;SDS011;38806;51.554;5.704;2023-08-31T11:31:28;4.95;;;2.75;;
50495;SDS011;38806;51.554;5.704;2023-08-31T11:33:31;5.53;;;2.30;;
50495;SDS011;38806;51.554;5.704;2023-08-31T11:35:33;5.32;;;2.13;;
50495;SDS011;38806;51.554;5.704;2023-08-31T11:37:34;4.40;;;1.98;;
50495;SDS011;38806;51.554;5.704;2023-08-31T11:39:37;5.88;;;1.77;;
50495;SDS011;38806;51.554;5.704;2023-08-31T11:41:37;2.88;;;1.67;;
50495;SDS011;38806;51.554;5.704;2023-08-31T11:43:43;5.45;;;2.30;;
50495;SDS011;38806;51.554;5.704;2023-08-31T11:45:44;5.80;;;1.70;;
50495;SDS011;38806;51.554;5.704;2023-08-31T11:47:44;4.20;;;1.40;;
50495;SDS011;38806;51.554;5.704;2023-08-31T11:49:45;6.50;;;2.25;;
50495;SDS011;38806;51.554;5.704;2023-08-31T11:51:46;6.07;;;1.90;;
50495;SDS011;38806;51.554;5.704;2023-08-31T11:53:47;3.33;;;1.80;;
50495;SDS011;38806;51.554;5.704;2023-08-31T11:55:50;5.18;;;2.03;;
50495;SDS011;38806;51.554;5.704;2023-08-31T11:57:54;5.43;;;1.70;;
50495;SDS011;38806;51.554;5.704;2023-08-31T11:59:54;6.65;;;1.92;;
50495;SDS011;38806;51.554;5.704;2023-08-31T12:01:55;10.35;;;3.20;;
50495;SDS011;38806;51.554;5.704;2023-08-31T12:03:56;7.55;;;2.30;;
50495;SDS011;38806;51.554;5.704;2023-08-31T12:05:56;6.27;;;2.80;;
50495;SDS011;38806;51.554;5.704;2023-08-31T12:07:58;5.22;;;2.92;;
50495;SDS011;38806;51.554;5.704;2023-08-31T12:10:04;8.20;;;2.37;;
50495;SDS011;38806;51.554;5.704;2023-08-31T12:12:05;4.72;;;2.67;;
50495;SDS011;38806;51.554;5.704;2023-08-31T12:16:20;7.60;;;2.55;;